sensor_id;sensor_type;location;lat;lon;timestamp;P1;durP1;ratioP1;P2;durP2;ratioP2
18322;SDS011;9287;49.456;11.064;2023-08-17T00:00:45;7.13;;;4.88;;
18322;SDS011;9287;49.456;11.064;2023-08-17T00:03:17;5.72;;;4.30;;
18322;SDS011;9287;49.456;11.064;2023-08-17T00:05:46;5.90;;;3.85;;
18322;SDS011;9287;49.456;11.064;2023-08-17T00:08:17;7.20;;;4.03;;
18322;SDS011;9287;49.456;11.064;2023-08-17T00:10:47;5.05;;;4.63;;
18322;SDS011;9287;49.456;11.064;2023-08-17T00:13:17;4.70;;;3.85;;
18322;SDS011;9287;49.456;11.064;2023-08-17T00:15:45;4.57;;;4.15;;
18322;SDS011;9287;49.456;11.064;2023-08-17T00:18:15;3.95;;;3.60;;
18322;SDS011;9287;49.456;11.064;2023-08-17T00:20:44;4.85;;;4.43;;
18322;SDS011;9287;49.456;11.064;2023-08-17T00:23:13;4.40;;;3.83;;
18322;SDS011;9287;49.456;11.064;2023-08-17T00:25:43;5.35;;;4.25;;
18322;SDS011;9287;49.456;11.064;2023-08-17T00:28:14;3.75;;;3.53;;
18322;SDS011;9287;49.456;11.064;2023-08-17T00:30:48;5.10;;;4.20;;
18322;SDS011;9287;49.456;11.064;2023-08-17T00:33:18;5.63;;;4.75;;
18322;SDS011;9287;49.456;11.064;2023-08-17T00:35:49;4.55;;;4.15;;
18322;SDS011;9287;49.456;11.064;2023-08-17T00:38:17;4.32;;;3.83;;
18322;SDS011;9287;49.456;11.064;2023-08-17T00:40:46;4.55;;;4.03;;
18322;SDS011;9287;49.456;11.064;2023-08-17T00:43:16;4.63;;;4.22;;
18322;SDS011;9287;49.456;11.064;2023-08-17T00:45:44;5.50;;;4.15;;
18322;SDS011;9287;49.456;11.064;2023-08-17T00:48:14;4.95;;;4.32;;
18322;SDS011;9287;49.456;11.064;2023-08-17T00:50:50;4.25;;;3.97;;
18322;SDS011;9287;49.456;11.064;2023-08-17T00:53:20;3.97;;;3.67;;
18322;SDS011;9287;49.456;11.064;2023-08-17T00:55:49;4.88;;;4.45;;
18322;SDS011;9287;49.456;11.064;2023-08-17T00:58:23;4.65;;;4.25;;
18322;SDS011;9287;49.456;11.064;2023-08-17T01:00:53;5.03;;;4.53;;
18322;SDS011;9287;49.456;11.064;2023-08-17T01:03:22;4.82;;;4.40;;
18322;SDS011;9287;49.456;11.064;2023-08-17T01:05:50;5.60;;;5.10;;
18322;SDS011;9287;49.456;11.064;2023-08-17T01:08:22;5.93;;;4.05;;
18322;SDS011;9287;49.456;11.064;2023-08-17T01:10:54;5.00;;;4.60;;
18322;SDS011;9287;49.456;11.064;2023-08-17T01:13:31;4.53;;;4.13;;
18322;SDS011;9287;49.456;11.064;2023-08-17T01:16:07;4.60;;;4.30;;
18322;SDS011;9287;49.456;11.064;2023-08-17T01:18:48;5.95;;;4.50;;
18322;SDS011;9287;49.456;11.064;2023-08-17T01:21:21;5.53;;;4.95;;
18322;SDS011;9287;49.456;11.064;2023-08-17T01:23:57;5.20;;;4.70;;
18322;SDS011;9287;49.456;11.064;2023-08-17T01:26:29;5.65;;;5.15;;
18322;SDS011;9287;49.456;11.064;2023-08-17T01:28:57;5.45;;;4.97;;
18322;SDS011;9287;49.456;11.064;2023-08-17T01:31:28;6.15;;;4.93;;
18322;SDS011;9287;49.456;11.064;2023-08-17T01:34:03;5.75;;;4.93;;
18322;SDS011;9287;49.456;11.064;2023-08-17T01:36:35;5.07;;;4.68;;
18322;SDS011;9287;49.456;11.064;2023-08-17T01:39:11;5.85;;;4.65;;
18322;SDS011;9287;49.456;11.064;2023-08-17T01:41:40;5.70;;;5.10;;
18322;SDS011;9287;49.456;11.064;2023-08-17T01:44:10;5.53;;;5.13;;
18322;SDS011;9287;49.456;11.064;2023-08-17T01:46:41;6.60;;;6.00;;
18322;SDS011;9287;49.456;11.064;2023-08-17T01:49:09;6.22;;;5.70;;
18322;SDS011;9287;49.456;11.064;2023-08-17T01:51:37;5.65;;;5.25;;
18322;SDS011;9287;49.456;11.064;2023-08-17T01:54:05;6.68;;;5.72;;
18322;SDS011;9287;49.456;11.064;2023-08-17T01:56:38;6.47;;;5.35;;
18322;SDS011;9287;49.456;11.064;2023-08-17T01:59:08;5.50;;;5.18;;
18322;SDS011;9287;49.456;11.064;2023-08-17T02:01:37;6.43;;;5.80;;
18322;SDS011;9287;49.456;11.064;2023-08-17T02:04:05;5.78;;;5.28;;
18322;SDS011;9287;49.456;11.064;2023-08-17T02:06:38;5.43;;;4.93;;
18322;SDS011;9287;49.456;11.064;2023-08-17T02:09:06;6.13;;;5.63;;
18322;SDS011;9287;49.456;11.064;2023-08-17T02:11:39;5.18;;;4.70;;
18322;SDS011;9287;49.456;11.064;2023-08-17T02:14:06;4.80;;;4.50;;
18322;SDS011;9287;49.456;11.064;2023-08-17T02:16:34;5.20;;;4.68;;
18322;SDS011;9287;49.456;11.064;2023-08-17T02:19:04;5.00;;;4.53;;
18322;SDS011;9287;49.456;11.064;2023-08-17T02:21:32;5.95;;;5.45;;
18322;SDS011;9287;49.456;11.064;2023-08-17T02:24:01;5.80;;;5.30;;
18322;SDS011;9287;49.456;11.064;2023-08-17T02:26:32;5.82;;;5.32;;
18322;SDS011;9287;49.456;11.064;2023-08-17T02:29:06;4.97;;;4.63;;
18322;SDS011;9287;49.456;11.064;2023-08-17T02:31:36;5.15;;;4.75;;
18322;SDS011;9287;49.456;11.064;2023-08-17T02:34:04;5.60;;;5.20;;
18322;SDS011;9287;49.456;11.064;2023-08-17T02:36:36;5.53;;;5.07;;
18322;SDS011;9287;49.456;11.064;2023-08-17T02:39:04;7.00;;;5.85;;
18322;SDS011;9287;49.456;11.064;2023-08-17T02:41:41;5.65;;;5.15;;
18322;SDS011;9287;49.456;11.064;2023-08-17T02:44:12;6.28;;;5.80;;
18322;SDS011;9287;49.456;11.064;2023-08-17T02:46:42;6.70;;;6.10;;
18322;SDS011;9287;49.456;11.064;2023-08-17T02:49:11;5.88;;;5.30;;
18322;SDS011;9287;49.456;11.064;2023-08-17T02:51:40;5.43;;;5.13;;
18322;SDS011;9287;49.456;11.064;2023-08-17T02:54:08;5.75;;;5.30;;
18322;SDS011;9287;49.456;11.064;2023-08-17T02:56:36;5.55;;;5.15;;
18322;SDS011;9287;49.456;11.064;2023-08-17T02:59:06;5.65;;;5.25;;
18322;SDS011;9287;49.456;11.064;2023-08-17T03:01:39;7.22;;;5.47;;
18322;SDS011;9287;49.456;11.064;2023-08-17T03:04:07;5.80;;;5.35;;
18322;SDS011;9287;49.456;11.064;2023-08-17T03:06:35;5.55;;;5.03;;
18322;SDS011;9287;49.456;11.064;2023-08-17T03:09:05;6.20;;;5.70;;
18322;SDS011;9287;49.456;11.064;2023-08-17T03:11:33;5.75;;;5.25;;
18322;SDS011;9287;49.456;11.064;2023-08-17T03:14:04;5.43;;;5.03;;
18322;SDS011;9287;49.456;11.064;2023-08-17T03:16:32;6.22;;;5.72;;
18322;SDS011;9287;49.456;11.064;2023-08-17T03:19:02;5.25;;;4.68;;
18322;SDS011;9287;49.456;11.064;2023-08-17T03:21:31;4.90;;;4.50;;
18322;SDS011;9287;49.456;11.064;2023-08-17T03:23:59;5.75;;;4.85;;
18322;SDS011;9287;49.456;11.064;2023-08-17T03:26:29;6.05;;;5.53;;
18322;SDS011;9287;49.456;11.064;2023-08-17T03:28:58;5.85;;;5.32;;
18322;SDS011;9287;49.456;11.064;2023-08-17T03:31:26;6.03;;;5.30;;
18322;SDS011;9287;49.456;11.064;2023-08-17T03:33:55;6.13;;;5.38;;
18322;SDS011;9287;49.456;11.064;2023-08-17T03:36:24;6.18;;;5.53;;
18322;SDS011;9287;49.456;11.064;2023-08-17T03:38:54;6.18;;;5.68;;
18322;SDS011;9287;49.456;11.064;2023-08-17T03:41:24;5.93;;;5.53;;
18322;SDS011;9287;49.456;11.064;2023-08-17T03:43:55;6.15;;;5.70;;
18322;SDS011;9287;49.456;11.064;2023-08-17T03:46:26;7.53;;;5.00;;
18322;SDS011;9287;49.456;11.064;2023-08-17T03:48:54;6.13;;;5.53;;
18322;SDS011;9287;49.456;11.064;2023-08-17T03:51:22;5.85;;;5.43;;
18322;SDS011;9287;49.456;11.064;2023-08-17T03:53:51;5.53;;;5.03;;
18322;SDS011;9287;49.456;11.064;2023-08-17T03:56:22;6.22;;;5.63;;
18322;SDS011;9287;49.456;11.064;2023-08-17T03:58:52;6.47;;;5.80;;
18322;SDS011;9287;49.456;11.064;2023-08-17T04:01:23;6.22;;;5.43;;
18322;SDS011;9287;49.456;11.064;2023-08-17T04:03:54;5.88;;;5.47;;
18322;SDS011;9287;49.456;11.064;2023-08-17T04:06:25;5.85;;;5.35;;
18322;SDS011;9287;49.456;11.064;2023-08-17T04:08:56;6.85;;;6.32;;
18322;SDS011;9287;49.456;11.064;2023-08-17T04:11:27;5.78;;;5.35;;
18322;SDS011;9287;49.456;11.064;2023-08-17T04:13:56;6.90;;;5.40;;
18322;SDS011;9287;49.456;11.064;2023-08-17T04:16:23;6.20;;;5.68;;
18322;SDS011;9287;49.456;11.064;2023-08-17T04:18:57;5.95;;;5.45;;
18322;SDS011;9287;49.456;11.064;2023-08-17T04:21:25;5.90;;;5.43;;
18322;SDS011;9287;49.456;11.064;2023-08-17T04:23:56;7.70;;;5.40;;
18322;SDS011;9287;49.456;11.064;2023-08-17T04:26:25;6.68;;;5.80;;
18322;SDS011;9287;49.456;11.064;2023-08-17T04:28:53;6.28;;;5.78;;
18322;SDS011;9287;49.456;11.064;2023-08-17T04:31:25;6.53;;;6.03;;
18322;SDS011;9287;49.456;11.064;2023-08-17T04:33:53;5.63;;;5.22;;
18322;SDS011;9287;49.456;11.064;2023-08-17T04:36:21;7.47;;;6.05;;
18322;SDS011;9287;49.456;11.064;2023-08-17T04:38:49;7.25;;;6.13;;
18322;SDS011;9287;49.456;11.064;2023-08-17T04:41:19;6.65;;;5.75;;
18322;SDS011;9287;49.456;11.064;2023-08-17T04:43:48;6.18;;;5.57;;
18322;SDS011;9287;49.456;11.064;2023-08-17T04:46:20;6.60;;;5.97;;
18322;SDS011;9287;49.456;11.064;2023-08-17T04:48:49;6.70;;;6.20;;
18322;SDS011;9287;49.456;11.064;2023-08-17T04:51:19;6.35;;;5.72;;
18322;SDS011;9287;49.456;11.064;2023-08-17T04:53:47;6.07;;;5.57;;
18322;SDS011;9287;49.456;11.064;2023-08-17T04:56:17;6.75;;;6.18;;
18322;SDS011;9287;49.456;11.064;2023-08-17T04:58:46;6.97;;;6.28;;
18322;SDS011;9287;49.456;11.064;2023-08-17T05:01:15;5.97;;;5.40;;
18322;SDS011;9287;49.456;11.064;2023-08-17T05:03:44;6.95;;;6.35;;
18322;SDS011;9287;49.456;11.064;2023-08-17T05:06:14;7.03;;;6.43;;
18322;SDS011;9287;49.456;11.064;2023-08-17T05:08:45;7.03;;;5.82;;
18322;SDS011;9287;49.456;11.064;2023-08-17T05:11:13;7.15;;;6.30;;
18322;SDS011;9287;49.456;11.064;2023-08-17T05:13:43;7.63;;;7.03;;
18322;SDS011;9287;49.456;11.064;2023-08-17T05:16:12;7.38;;;6.63;;
18322;SDS011;9287;49.456;11.064;2023-08-17T05:18:40;8.23;;;6.32;;
18322;SDS011;9287;49.456;11.064;2023-08-17T05:21:09;6.95;;;6.25;;
18322;SDS011;9287;49.456;11.064;2023-08-17T05:23:38;21.67;;;8.82;;
18322;SDS011;9287;49.456;11.064;2023-08-17T05:26:14;7.75;;;6.95;;
18322;SDS011;9287;49.456;11.064;2023-08-17T05:28:44;10.13;;;7.72;;
18322;SDS011;9287;49.456;11.064;2023-08-17T05:31:16;16.08;;;7.18;;
18322;SDS011;9287;49.456;11.064;2023-08-17T05:33:44;8.45;;;6.57;;
18322;SDS011;9287;49.456;11.064;2023-08-17T05:36:17;9.30;;;6.43;;
18322;SDS011;9287;49.456;11.064;2023-08-17T05:38:45;7.00;;;5.95;;
18322;SDS011;9287;49.456;11.064;2023-08-17T05:41:15;6.70;;;6.03;;
18322;SDS011;9287;49.456;11.064;2023-08-17T05:43:45;6.72;;;6.20;;
18322;SDS011;9287;49.456;11.064;2023-08-17T05:46:14;7.47;;;6.50;;
18322;SDS011;9287;49.456;11.064;2023-08-17T05:48:43;7.78;;;6.15;;
18322;SDS011;9287;49.456;11.064;2023-08-17T05:51:14;7.18;;;5.90;;
18322;SDS011;9287;49.456;11.064;2023-08-17T05:53:42;8.77;;;6.40;;
18322;SDS011;9287;49.456;11.064;2023-08-17T05:56:11;7.38;;;6.38;;
18322;SDS011;9287;49.456;11.064;2023-08-17T05:58:39;6.30;;;5.80;;
18322;SDS011;9287;49.456;11.064;2023-08-17T06:01:13;9.40;;;6.63;;
18322;SDS011;9287;49.456;11.064;2023-08-17T06:03:42;7.35;;;6.65;;
18322;SDS011;9287;49.456;11.064;2023-08-17T06:06:13;7.07;;;5.55;;
18322;SDS011;9287;49.456;11.064;2023-08-17T06:08:43;6.90;;;6.20;;
18322;SDS011;9287;49.456;11.064;2023-08-17T06:11:11;7.68;;;7.05;;
18322;SDS011;9287;49.456;11.064;2023-08-17T06:13:41;7.45;;;6.10;;
18322;SDS011;9287;49.456;11.064;2023-08-17T06:16:09;7.22;;;6.40;;
18322;SDS011;9287;49.456;11.064;2023-08-17T06:18:43;6.22;;;5.72;;
18322;SDS011;9287;49.456;11.064;2023-08-17T06:21:14;6.55;;;5.95;;
18322;SDS011;9287;49.456;11.064;2023-08-17T06:23:45;8.05;;;6.47;;
18322;SDS011;9287;49.456;11.064;2023-08-17T06:26:13;6.40;;;5.82;;
18322;SDS011;9287;49.456;11.064;2023-08-17T06:28:41;6.18;;;5.68;;
18322;SDS011;9287;49.456;11.064;2023-08-17T06:31:15;8.27;;;7.47;;
18322;SDS011;9287;49.456;11.064;2023-08-17T06:33:44;8.20;;;6.57;;
18322;SDS011;9287;49.456;11.064;2023-08-17T06:36:14;9.20;;;6.43;;
18322;SDS011;9287;49.456;11.064;2023-08-17T06:38:43;7.13;;;6.45;;
18322;SDS011;9287;49.456;11.064;2023-08-17T06:41:12;7.28;;;6.35;;
18322;SDS011;9287;49.456;11.064;2023-08-17T06:43:40;6.80;;;6.18;;
18322;SDS011;9287;49.456;11.064;2023-08-17T06:46:09;6.97;;;6.35;;
18322;SDS011;9287;49.456;11.064;2023-08-17T06:48:39;6.50;;;5.90;;
18322;SDS011;9287;49.456;11.064;2023-08-17T06:51:07;7.15;;;6.20;;
18322;SDS011;9287;49.456;11.064;2023-08-17T06:53:35;6.60;;;6.00;;
18322;SDS011;9287;49.456;11.064;2023-08-17T06:56:03;8.18;;;5.72;;
18322;SDS011;9287;49.456;11.064;2023-08-17T06:58:30;5.70;;;4.93;;
18322;SDS011;9287;49.456;11.064;2023-08-17T07:00:58;5.32;;;4.63;;
18322;SDS011;9287;49.456;11.064;2023-08-17T07:03:26;8.27;;;5.13;;
18322;SDS011;9287;49.456;11.064;2023-08-17T07:05:55;4.55;;;4.15;;
18322;SDS011;9287;49.456;11.064;2023-08-17T07:08:24;5.10;;;4.60;;
18322;SDS011;9287;49.456;11.064;2023-08-17T07:10:51;5.45;;;5.05;;
18322;SDS011;9287;49.456;11.064;2023-08-17T07:13:20;5.35;;;4.40;;
18322;SDS011;9287;49.456;11.064;2023-08-17T07:15:48;4.70;;;4.32;;
18322;SDS011;9287;49.456;11.064;2023-08-17T07:18:16;4.95;;;4.63;;
18322;SDS011;9287;49.456;11.064;2023-08-17T07:20:44;4.05;;;3.75;;
18322;SDS011;9287;49.456;11.064;2023-08-17T07:23:13;8.85;;;4.50;;
18322;SDS011;9287;49.456;11.064;2023-08-17T07:25:41;4.50;;;4.10;;
18322;SDS011;9287;49.456;11.064;2023-08-17T07:28:09;4.25;;;3.95;;
18322;SDS011;9287;49.456;11.064;2023-08-17T07:30:39;4.50;;;3.35;;
18322;SDS011;9287;49.456;11.064;2023-08-17T07:33:07;4.32;;;3.92;;
18322;SDS011;9287;49.456;11.064;2023-08-17T07:35:35;4.82;;;3.80;;
18322;SDS011;9287;49.456;11.064;2023-08-17T07:38:03;4.88;;;3.88;;
18322;SDS011;9287;49.456;11.064;2023-08-17T07:40:36;4.03;;;3.83;;
18322;SDS011;9287;49.456;11.064;2023-08-17T07:43:04;4.72;;;3.60;;
18322;SDS011;9287;49.456;11.064;2023-08-17T07:45:33;4.50;;;3.58;;
18322;SDS011;9287;49.456;11.064;2023-08-17T07:48:01;3.95;;;3.60;;
18322;SDS011;9287;49.456;11.064;2023-08-17T07:50:28;6.00;;;4.30;;
18322;SDS011;9287;49.456;11.064;2023-08-17T07:52:56;4.05;;;3.75;;
18322;SDS011;9287;49.456;11.064;2023-08-17T07:55:25;6.60;;;3.80;;
18322;SDS011;9287;49.456;11.064;2023-08-17T07:57:54;4.35;;;3.53;;
18322;SDS011;9287;49.456;11.064;2023-08-17T08:00:22;4.70;;;4.10;;
18322;SDS011;9287;49.456;11.064;2023-08-17T08:02:50;4.13;;;3.80;;
18322;SDS011;9287;49.456;11.064;2023-08-17T08:05:18;3.60;;;3.40;;
18322;SDS011;9287;49.456;11.064;2023-08-17T08:07:47;4.78;;;3.63;;
18322;SDS011;9287;49.456;11.064;2023-08-17T08:10:15;4.05;;;3.58;;
18322;SDS011;9287;49.456;11.064;2023-08-17T08:12:43;4.47;;;3.78;;
18322;SDS011;9287;49.456;11.064;2023-08-17T08:15:13;3.95;;;3.70;;
18322;SDS011;9287;49.456;11.064;2023-08-17T08:17:40;4.82;;;3.88;;
18322;SDS011;9287;49.456;11.064;2023-08-17T08:20:08;5.55;;;3.85;;
18322;SDS011;9287;49.456;11.064;2023-08-17T08:22:37;4.18;;;3.75;;
18322;SDS011;9287;49.456;11.064;2023-08-17T08:25:05;4.75;;;4.35;;
18322;SDS011;9287;49.456;11.064;2023-08-17T08:27:33;3.63;;;3.42;;
18322;SDS011;9287;49.456;11.064;2023-08-17T08:30:01;4.95;;;4.20;;
18322;SDS011;9287;49.456;11.064;2023-08-17T08:32:30;3.75;;;3.45;;
18322;SDS011;9287;49.456;11.064;2023-08-17T08:34:58;4.55;;;3.70;;
18322;SDS011;9287;49.456;11.064;2023-08-17T08:37:26;3.55;;;3.28;;
18322;SDS011;9287;49.456;11.064;2023-08-17T08:39:55;4.57;;;4.18;;
18322;SDS011;9287;49.456;11.064;2023-08-17T08:42:23;4.25;;;3.85;;
18322;SDS011;9287;49.456;11.064;2023-08-17T08:44:52;5.38;;;4.03;;
18322;SDS011;9287;49.456;11.064;2023-08-17T08:47:21;4.20;;;3.90;;
18322;SDS011;9287;49.456;11.064;2023-08-17T08:49:57;4.28;;;3.88;;
18322;SDS011;9287;49.456;11.064;2023-08-17T08:52:30;4.75;;;4.10;;
18322;SDS011;9287;49.456;11.064;2023-08-17T08:55:02;4.82;;;4.43;;
18322;SDS011;9287;49.456;11.064;2023-08-17T08:57:39;5.13;;;4.60;;
18322;SDS011;9287;49.456;11.064;2023-08-17T09:00:08;5.03;;;4.70;;
18322;SDS011;9287;49.456;11.064;2023-08-17T09:02:37;5.03;;;4.72;;
18322;SDS011;9287;49.456;11.064;2023-08-17T09:05:08;5.00;;;4.57;;
18322;SDS011;9287;49.456;11.064;2023-08-17T09:07:37;5.57;;;4.82;;
18322;SDS011;9287;49.456;11.064;2023-08-17T09:10:06;6.15;;;4.60;;
18322;SDS011;9287;49.456;11.064;2023-08-17T09:12:35;5.15;;;4.65;;
18322;SDS011;9287;49.456;11.064;2023-08-17T09:15:07;4.57;;;4.25;;
18322;SDS011;9287;49.456;11.064;2023-08-17T09:17:35;5.07;;;4.25;;
18322;SDS011;9287;49.456;11.064;2023-08-17T09:20:03;4.75;;;4.35;;
18322;SDS011;9287;49.456;11.064;2023-08-17T09:22:38;4.82;;;4.32;;
18322;SDS011;9287;49.456;11.064;2023-08-17T09:25:08;4.72;;;4.28;;
18322;SDS011;9287;49.456;11.064;2023-08-17T09:27:36;4.70;;;4.30;;
18322;SDS011;9287;49.456;11.064;2023-08-17T09:30:05;4.22;;;4.03;;
18322;SDS011;9287;49.456;11.064;2023-08-17T09:32:34;4.47;;;4.07;;
18322;SDS011;9287;49.456;11.064;2023-08-17T09:35:02;4.43;;;4.13;;
18322;SDS011;9287;49.456;11.064;2023-08-17T09:37:32;4.82;;;4.63;;
18322;SDS011;9287;49.456;11.064;2023-08-17T09:40:02;5.22;;;4.38;;
18322;SDS011;9287;49.456;11.064;2023-08-17T09:42:34;6.25;;;4.50;;
18322;SDS011;9287;49.456;11.064;2023-08-17T09:45:02;5.22;;;4.75;;
18322;SDS011;9287;49.456;11.064;2023-08-17T09:47:30;5.05;;;4.45;;
18322;SDS011;9287;49.456;11.064;2023-08-17T09:49:58;5.28;;;4.88;;
18322;SDS011;9287;49.456;11.064;2023-08-17T09:52:26;5.10;;;4.63;;
18322;SDS011;9287;49.456;11.064;2023-08-17T09:54:55;4.35;;;4.03;;
18322;SDS011;9287;49.456;11.064;2023-08-17T09:57:24;5.75;;;5.20;;
18322;SDS011;9287;49.456;11.064;2023-08-17T09:59:55;4.57;;;4.20;;
18322;SDS011;9287;49.456;11.064;2023-08-17T10:02:23;7.05;;;5.28;;
18322;SDS011;9287;49.456;11.064;2023-08-17T10:04:52;4.90;;;4.65;;
18322;SDS011;9287;49.456;11.064;2023-08-17T10:07:21;5.10;;;4.60;;
18322;SDS011;9287;49.456;11.064;2023-08-17T10:10:00;6.18;;;5.60;;
18322;SDS011;9287;49.456;11.064;2023-08-17T10:12:33;5.90;;;5.40;;
18322;SDS011;9287;49.456;11.064;2023-08-17T10:15:06;5.55;;;5.05;;
18322;SDS011;9287;49.456;11.064;2023-08-17T10:17:37;6.75;;;5.25;;
18322;SDS011;9287;49.456;11.064;2023-08-17T10:20:10;10.65;;;5.35;;
18322;SDS011;9287;49.456;11.064;2023-08-17T10:22:42;7.28;;;5.32;;
18322;SDS011;9287;49.456;11.064;2023-08-17T10:25:16;5.57;;;5.20;;
18322;SDS011;9287;49.456;11.064;2023-08-17T10:27:47;5.57;;;5.07;;
18322;SDS011;9287;49.456;11.064;2023-08-17T10:30:18;6.63;;;6.03;;
18322;SDS011;9287;49.456;11.064;2023-08-17T10:32:45;6.03;;;5.45;;
18322;SDS011;9287;49.456;11.064;2023-08-17T10:35:14;7.22;;;6.63;;
18322;SDS011;9287;49.456;11.064;2023-08-17T10:37:42;6.80;;;6.10;;
18322;SDS011;9287;49.456;11.064;2023-08-17T10:40:11;5.75;;;5.28;;
18322;SDS011;9287;49.456;11.064;2023-08-17T10:42:41;6.47;;;5.82;;
18322;SDS011;9287;49.456;11.064;2023-08-17T10:45:28;9.95;;;6.13;;
18322;SDS011;9287;49.456;11.064;2023-08-17T10:50:58;6.40;;;5.15;;
18322;SDS011;9287;49.456;11.064;2023-08-17T10:53:30;8.13;;;7.53;;
18322;SDS011;9287;49.456;11.064;2023-08-17T10:56:02;5.55;;;5.15;;
18322;SDS011;9287;49.456;11.064;2023-08-17T10:58:35;6.30;;;5.35;;
18322;SDS011;9287;49.456;11.064;2023-08-17T11:01:07;5.80;;;5.30;;
18322;SDS011;9287;49.456;11.064;2023-08-17T11:03:36;6.20;;;5.63;;
18322;SDS011;9287;49.456;11.064;2023-08-17T11:06:15;5.43;;;5.07;;
18322;SDS011;9287;49.456;11.064;2023-08-17T11:08:51;6.80;;;6.05;;
18322;SDS011;9287;49.456;11.064;2023-08-17T11:11:21;5.68;;;5.03;;
18322;SDS011;9287;49.456;11.064;2023-08-17T11:13:52;6.50;;;5.90;;
18322;SDS011;9287;49.456;11.064;2023-08-17T11:16:24;6.50;;;6.00;;
18322;SDS011;9287;49.456;11.064;2023-08-17T11:18:52;6.07;;;5.60;;
18322;SDS011;9287;49.456;11.064;2023-08-17T11:21:23;8.98;;;8.18;;
18322;SDS011;9287;49.456;11.064;2023-08-17T11:23:51;6.32;;;5.72;;
18322;SDS011;9287;49.456;11.064;2023-08-17T11:26:23;6.28;;;5.80;;
18322;SDS011;9287;49.456;11.064;2023-08-17T11:28:52;5.68;;;5.28;;
18322;SDS011;9287;49.456;11.064;2023-08-17T11:31:20;6.45;;;5.93;;
18322;SDS011;9287;49.456;11.064;2023-08-17T11:33:49;5.65;;;5.25;;
18322;SDS011;9287;49.456;11.064;2023-08-17T11:36:21;5.97;;;5.10;;
18322;SDS011;9287;49.456;11.064;2023-08-17T11:38:50;6.40;;;5.90;;
18322;SDS011;9287;49.456;11.064;2023-08-17T11:41:19;6.03;;;5.53;;
18322;SDS011;9287;49.456;11.064;2023-08-17T11:43:47;5.63;;;5.22;;
18322;SDS011;9287;49.456;11.064;2023-08-17T11:46:16;5.65;;;5.28;;
18322;SDS011;9287;49.456;11.064;2023-08-17T11:48:45;5.28;;;4.88;;
18322;SDS011;9287;49.456;11.064;2023-08-17T11:51:14;5.25;;;4.85;;
18322;SDS011;9287;49.456;11.064;2023-08-17T11:53:42;5.47;;;5.18;;
18322;SDS011;9287;49.456;11.064;2023-08-17T11:56:15;5.35;;;4.88;;
18322;SDS011;9287;49.456;11.064;2023-08-17T11:58:43;5.93;;;5.43;;
18322;SDS011;9287;49.456;11.064;2023-08-17T12:01:13;5.60;;;5.10;;
18322;SDS011;9287;49.456;11.064;2023-08-17T12:03:43;6.20;;;5.07;;
18322;SDS011;9287;49.456;11.064;2023-08-17T12:06:12;5.78;;;5.40;;
18322;SDS011;9287;49.456;11.064;2023-08-17T12:08:44;4.97;;;4.57;;
18322;SDS011;9287;49.456;11.064;2023-08-17T12:11:15;5.35;;;5.05;;
18322;SDS011;9287;49.456;11.064;2023-08-17T12:13:46;5.43;;;5.07;;
18322;SDS011;9287;49.456;11.064;2023-08-17T12:16:17;20.30;;;8.20;;
18322;SDS011;9287;49.456;11.064;2023-08-17T12:18:47;5.57;;;5.10;;
18322;SDS011;9287;49.456;11.064;2023-08-17T12:21:19;5.95;;;5.50;;
18322;SDS011;9287;49.456;11.064;2023-08-17T12:23:47;5.50;;;5.20;;
18322;SDS011;9287;49.456;11.064;2023-08-17T12:26:17;7.13;;;4.70;;
18322;SDS011;9287;49.456;11.064;2023-08-17T12:28:46;5.40;;;4.90;;
18322;SDS011;9287;49.456;11.064;2023-08-17T12:31:14;5.53;;;5.22;;
18322;SDS011;9287;49.456;11.064;2023-08-17T12:33:48;6.00;;;5.60;;
18322;SDS011;9287;49.456;11.064;2023-08-17T12:36:17;6.78;;;5.40;;
18322;SDS011;9287;49.456;11.064;2023-08-17T12:38:47;5.75;;;5.25;;
18322;SDS011;9287;49.456;11.064;2023-08-17T12:41:15;10.57;;;6.03;;
18322;SDS011;9287;49.456;11.064;2023-08-17T12:43:44;5.50;;;5.10;;
18322;SDS011;9287;49.456;11.064;2023-08-17T12:46:11;5.25;;;4.95;;
18322;SDS011;9287;49.456;11.064;2023-08-17T12:48:39;6.35;;;4.90;;
18322;SDS011;9287;49.456;11.064;2023-08-17T12:51:07;6.75;;;4.93;;
18322;SDS011;9287;49.456;11.064;2023-08-17T12:53:36;6.10;;;5.65;;
18322;SDS011;9287;49.456;11.064;2023-08-17T12:56:05;5.32;;;4.93;;
18322;SDS011;9287;49.456;11.064;2023-08-17T12:58:33;5.28;;;4.97;;
18322;SDS011;9287;49.456;11.064;2023-08-17T13:01:01;5.93;;;4.82;;
18322;SDS011;9287;49.456;11.064;2023-08-17T13:03:29;5.78;;;5.28;;
18322;SDS011;9287;49.456;11.064;2023-08-17T13:05:57;5.15;;;4.85;;
18322;SDS011;9287;49.456;11.064;2023-08-17T13:08:25;5.20;;;4.80;;
18322;SDS011;9287;49.456;11.064;2023-08-17T13:10:54;5.43;;;4.95;;
18322;SDS011;9287;49.456;11.064;2023-08-17T13:13:22;5.43;;;5.03;;
18322;SDS011;9287;49.456;11.064;2023-08-17T13:15:50;7.53;;;6.80;;
18322;SDS011;9287;49.456;11.064;2023-08-17T13:18:19;5.82;;;5.40;;
18322;SDS011;9287;49.456;11.064;2023-08-17T13:20:46;5.72;;;5.10;;
18322;SDS011;9287;49.456;11.064;2023-08-17T13:23:14;4.53;;;4.20;;
18322;SDS011;9287;49.456;11.064;2023-08-17T13:25:42;7.78;;;4.72;;
18322;SDS011;9287;49.456;11.064;2023-08-17T13:28:12;5.07;;;4.75;;
18322;SDS011;9287;49.456;11.064;2023-08-17T13:30:39;8.63;;;6.35;;
18322;SDS011;9287;49.456;11.064;2023-08-17T13:33:07;5.43;;;5.13;;
18322;SDS011;9287;49.456;11.064;2023-08-17T13:35:35;6.13;;;5.63;;
18322;SDS011;9287;49.456;11.064;2023-08-17T13:38:03;5.50;;;4.82;;
18322;SDS011;9287;49.456;11.064;2023-08-17T13:40:31;6.43;;;5.88;;
18322;SDS011;9287;49.456;11.064;2023-08-17T13:43:02;8.65;;;7.85;;
18322;SDS011;9287;49.456;11.064;2023-08-17T13:45:36;8.82;;;8.00;;
18322;SDS011;9287;49.456;11.064;2023-08-17T13:48:04;7.30;;;6.60;;
18322;SDS011;9287;49.456;11.064;2023-08-17T13:50:32;6.18;;;5.68;;
18322;SDS011;9287;49.456;11.064;2023-08-17T13:53:00;8.82;;;7.38;;
18322;SDS011;9287;49.456;11.064;2023-08-17T13:55:28;8.13;;;5.60;;
18322;SDS011;9287;49.456;11.064;2023-08-17T13:57:57;5.93;;;5.10;;
18322;SDS011;9287;49.456;11.064;2023-08-17T14:00:25;5.93;;;5.40;;
18322;SDS011;9287;49.456;11.064;2023-08-17T14:02:55;5.78;;;5.25;;
18322;SDS011;9287;49.456;11.064;2023-08-17T14:05:23;8.63;;;4.95;;
18322;SDS011;9287;49.456;11.064;2023-08-17T14:07:51;5.07;;;4.68;;
18322;SDS011;9287;49.456;11.064;2023-08-17T14:10:19;4.90;;;4.43;;
18322;SDS011;9287;49.456;11.064;2023-08-17T14:13:05;4.93;;;4.53;;
18322;SDS011;9287;49.456;11.064;2023-08-17T14:15:34;4.72;;;4.40;;
18322;SDS011;9287;49.456;11.064;2023-08-17T14:18:05;5.18;;;4.35;;
18322;SDS011;9287;49.456;11.064;2023-08-17T14:20:33;4.43;;;4.13;;
18322;SDS011;9287;49.456;11.064;2023-08-17T14:23:01;4.80;;;4.30;;
18322;SDS011;9287;49.456;11.064;2023-08-17T14:25:29;6.93;;;3.88;;
18322;SDS011;9287;49.456;11.064;2023-08-17T14:27:57;5.45;;;3.88;;
18322;SDS011;9287;49.456;11.064;2023-08-17T14:30:26;4.70;;;3.75;;
18322;SDS011;9287;49.456;11.064;2023-08-17T14:32:54;4.57;;;4.18;;
18322;SDS011;9287;49.456;11.064;2023-08-17T14:35:28;4.13;;;3.85;;
18322;SDS011;9287;49.456;11.064;2023-08-17T14:37:56;4.28;;;3.97;;
18322;SDS011;9287;49.456;11.064;2023-08-17T14:40:27;4.78;;;4.47;;
18322;SDS011;9287;49.456;11.064;2023-08-17T14:42:55;4.30;;;4.00;;
18322;SDS011;9287;49.456;11.064;2023-08-17T14:45:23;4.78;;;4.43;;
18322;SDS011;9287;49.456;11.064;2023-08-17T14:47:51;5.55;;;5.03;;
18322;SDS011;9287;49.456;11.064;2023-08-17T14:50:21;5.85;;;5.35;;
18322;SDS011;9287;49.456;11.064;2023-08-17T14:52:58;5.72;;;5.32;;
18322;SDS011;9287;49.456;11.064;2023-08-17T14:55:29;7.63;;;5.57;;
18322;SDS011;9287;49.456;11.064;2023-08-17T14:57:59;6.00;;;5.43;;
18322;SDS011;9287;49.456;11.064;2023-08-17T15:00:29;6.72;;;5.60;;
18322;SDS011;9287;49.456;11.064;2023-08-17T15:02:59;6.28;;;5.72;;
18322;SDS011;9287;49.456;11.064;2023-08-17T15:05:27;5.90;;;5.35;;